地図

経路データ

SID SEASON NUMBER BASIN SUBBASIN NAME ISO_TIME NATURE LAT LON WMO_WIND WMO_PRES WMO_AGENCY TRACK_TYPE DIST2LAND LANDFALL IFLAG USA_AGENCY USA_ATCF_ID USA_LAT USA_LON USA_RECORD USA_STATUS USA_WIND USA_PRES USA_SSHS USA_R34_NE USA_R34_SE USA_R34_SW USA_R34_NW USA_R50_NE USA_R50_SE USA_R50_SW USA_R50_NW USA_R64_NE USA_R64_SE USA_R64_SW USA_R64_NW USA_POCI USA_ROCI USA_RMW USA_EYE TOKYO_LAT TOKYO_LON TOKYO_GRADE TOKYO_WIND TOKYO_PRES TOKYO_R50_DIR TOKYO_R50_LONG TOKYO_R50_SHORT TOKYO_R30_DIR TOKYO_R30_LONG TOKYO_R30_SHORT TOKYO_LAND CMA_LAT CMA_LON CMA_CAT CMA_WIND CMA_PRES HKO_LAT HKO_LON HKO_CAT HKO_WIND HKO_PRES NEWDELHI_LAT NEWDELHI_LON NEWDELHI_GRADE NEWDELHI_WIND NEWDELHI_PRES NEWDELHI_CI NEWDELHI_DP NEWDELHI_POCI REUNION_LAT REUNION_LON REUNION_TYPE REUNION_WIND REUNION_PRES REUNION_TNUM REUNION_CI REUNION_RMW REUNION_R34_NE REUNION_R34_SE REUNION_R34_SW REUNION_R34_NW REUNION_R50_NE REUNION_R50_SE REUNION_R50_SW REUNION_R50_NW REUNION_R64_NE REUNION_R64_SE REUNION_R64_SW REUNION_R64_NW BOM_LAT BOM_LON BOM_TYPE BOM_WIND BOM_PRES BOM_TNUM BOM_CI BOM_RMW BOM_R34_NE BOM_R34_SE BOM_R34_SW BOM_R34_NW BOM_R50_NE BOM_R50_SE BOM_R50_SW BOM_R50_NW BOM_R64_NE BOM_R64_SE BOM_R64_SW BOM_R64_NW BOM_ROCI BOM_POCI BOM_EYE BOM_POS_METHOD BOM_PRES_METHOD NADI_LAT NADI_LON NADI_CAT NADI_WIND NADI_PRES WELLINGTON_LAT WELLINGTON_LON WELLINGTON_WIND WELLINGTON_PRES DS824_LAT DS824_LON DS824_STAGE DS824_WIND DS824_PRES TD9636_LAT TD9636_LON TD9636_STAGE TD9636_WIND TD9636_PRES TD9635_LAT TD9635_LON TD9635_WIND TD9635_PRES TD9635_ROCI NEUMANN_LAT NEUMANN_LON NEUMANN_CLASS NEUMANN_WIND NEUMANN_PRES MLC_LAT MLC_LON MLC_CLASS MLC_WIND MLC_PRES USA_GUST BOM_GUST BOM_GUST_PER REUNION_GUST REUNION_GUST_PER USA_SEAHGT USA_SEARAD_NE USA_SEARAD_SE USA_SEARAD_SW USA_SEARAD_NW STORM_SPEED STORM_DIR
1931287N25284 1931 46 NA NA NOT_NAMED 1931-10-13 12:00:00 TS 24.8000 -75.6000 30 hurdat_atl main 214 187 O_____________ hurdat_atl AL091931 24.8000 -75.6000 TD 30 -1 6 300
1931287N25284 1931 46 NA NA NOT_NAMED 1931-10-13 15:00:00 TS 24.9526 -75.8898 main 190 165 P_____________ AL091931 24.9526 -75.8898 TD 30 -1 6 299
1931287N25284 1931 46 NA NA NOT_NAMED 1931-10-13 18:00:00 TS 25.1000 -76.2000 30 hurdat_atl main 165 142 O_____________ hurdat_atl AL091931 25.1000 -76.2000 TD 30 -1 7 296
1931287N25284 1931 46 NA NA NOT_NAMED 1931-10-13 21:00:00 TS 25.2425 -76.5426 main 142 115 P_____________ AL091931 25.2425 -76.5426 TD 30 -1 7 295
1931287N25284 1931 46 NA NA NOT_NAMED 1931-10-14 00:00:00 TS 25.4000 -76.9000 30 hurdat_atl main 115 91 O_____________ hurdat_atl AL091931 25.4000 -76.9000 TD 30 -1 7 298
1931287N25284 1931 46 NA NA NOT_NAMED 1931-10-14 03:00:00 TS 25.5925 -77.2650 main 89 82 P_____________ AL091931 25.5925 -77.2650 TD 30 -1 7 302
1931287N25284 1931 46 NA NA NOT_NAMED 1931-10-14 06:00:00 TS 25.8000 -77.6000 30 hurdat_atl main 87 83 O_____________ hurdat_atl AL091931 25.8000 -77.6000 TD 30 -1 7 305
1931287N25284 1931 46 NA NA NOT_NAMED 1931-10-14 09:00:00 TS 25.9925 -77.9025 main 101 100 P_____________ AL091931 25.9925 -77.9025 TD 30 -1 6 312
1931287N25284 1931 46 NA NA NOT_NAMED 1931-10-14 12:00:00 TS 26.2000 -78.1000 30 hurdat_atl main 122 122 O_____________ hurdat_atl AL091931 26.2000 -78.1000 TD 30 -1 5 334
1931287N25284 1931 46 NA NA NOT_NAMED 1931-10-14 15:00:00 TS 26.4349 -78.1451 main 145 145 P_____________ AL091931 26.4349 -78.1451 TD 30 -1 5 2
1931287N25284 1931 46 NA NA NOT_NAMED 1931-10-14 18:00:00 TS 26.7000 -78.1000 30 hurdat_atl main 178 178 O_____________ hurdat_atl AL091931 26.7000 -78.1000 TD 30 -1 6 7
1931287N25284 1931 46 NA NA NOT_NAMED 1931-10-14 21:00:00 TS 26.9925 -78.0650 main 189 189 P_____________ AL091931 26.9925 -78.0650 TD 30 -1 6 8
1931287N25284 1931 46 NA NA NOT_NAMED 1931-10-15 00:00:00 TS 27.3000 -78.0000 30 hurdat_atl main 205 205 O_____________ hurdat_atl AL091931 27.3000 -78.0000 TD 30 -1 6 12
1931287N25284 1931 46 NA NA NOT_NAMED 1931-10-15 03:00:00 TS 27.6000 -77.9224 main 225 225 P_____________ AL091931 27.6000 -77.9224 TD 32 -1 6 16
1931287N25284 1931 46 NA NA NOT_NAMED 1931-10-15 06:00:00 TS 27.9000 -77.8000 35 hurdat_atl main 247 247 O_____________ hurdat_atl AL091931 27.9000 -77.8000 TS 35 0 6 20
1931287N25284 1931 46 NA NA NOT_NAMED 1931-10-15 09:00:00 TS 28.1995 -77.6819 main 270 270 P_____________ AL091931 28.1995 -77.6819 TS 35 0 7 30
1931287N25284 1931 46 NA NA NOT_NAMED 1931-10-15 12:00:00 TS 28.5000 -77.4000 35 hurdat_atl main 302 302 O_____________ hurdat_atl AL091931 28.5000 -77.4000 TS 35 0 9 51
1931287N25284 1931 46 NA NA NOT_NAMED 1931-10-15 15:00:00 TS 28.7769 -76.8765 main 352 352 P_____________ AL091931 28.7769 -76.8765 TS 37 0 13 62
1931287N25284 1931 46 NA NA NOT_NAMED 1931-10-15 18:00:00 TS 29.1000 -76.1000 40 hurdat_atl main 433 433 O_____________ hurdat_atl AL091931 29.1000 -76.1000 TS 40 0 17 64
1931287N25284 1931 46 NA NA NOT_NAMED 1931-10-15 21:00:00 TS 29.5128 -75.1171 main 536 536 P_____________ AL091931 29.5128 -75.1171 TS 40 0 20 64
1931287N25284 1931 46 NA NA NOT_NAMED 1931-10-16 00:00:00 TS 30.0000 -74.0000 40 hurdat_atl main 574 565 O_____________ hurdat_atl AL091931 30.0000 -74.0000 TS 40 0 21 62
1931287N25284 1931 46 NA NA NOT_NAMED 1931-10-16 03:00:00 TS 30.5110 -72.9354 main 576 573 P_____________ AL091931 30.5110 -72.9354 TS 40 0 22 60
1931287N25284 1931 46 NA NA NOT_NAMED 1931-10-16 06:00:00 TS 31.1000 -71.8000 40 hurdat_atl main 593 593 O_____________ hurdat_atl AL091931 31.1000 -71.8000 TS 40 0 24 58
1931287N25284 1931 46 NA NA NOT_NAMED 1931-10-16 09:00:00 TS 31.7783 -70.5426 main 639 639 P_____________ AL091931 31.7783 -70.5426 TS 37 0 26 58
1931287N25284 1931 46 NA NA NOT_NAMED 1931-10-16 12:00:00 ET 32.5000 -69.2000 35 hurdat_atl main 685 O_____________ hurdat_atl AL091931 32.5000 -69.2000 EX 35 -4 27 57

IBTrACS Databaseについて

本データベースは、米国NOAAが公開する1842年以降の世界の熱帯低気圧のベストトラックデータアーカイブInternational Best Track Archive for Climate Stewardship (IBTrACS)を、ウェブで閲覧しやすい形式に変換したものです。

最終更新日:2021-11-26